sensor_id;sensor_type;location;lat;lon;timestamp;temperature;humidity
9329;DHT22;4703;48.748;19.142;2023-03-22T00:01:20;6.10;99.90
9329;DHT22;4703;48.748;19.142;2023-03-22T00:03:49;6.10;99.90
9329;DHT22;4703;48.748;19.142;2023-03-22T00:06:18;6.10;99.90
9329;DHT22;4703;48.748;19.142;2023-03-22T00:08:48;6.10;99.90
9329;DHT22;4703;48.748;19.142;2023-03-22T00:11:18;6.10;99.90
9329;DHT22;4703;48.748;19.142;2023-03-22T00:13:46;6.00;99.90
9329;DHT22;4703;48.748;19.142;2023-03-22T00:16:13;6.00;99.90
9329;DHT22;4703;48.748;19.142;2023-03-22T00:18:41;6.80;99.90
9329;DHT22;4703;48.748;19.142;2023-03-22T00:21:13;6.00;99.90
9329;DHT22;4703;48.748;19.142;2023-03-22T00:23:41;6.00;99.90
9329;DHT22;4703;48.748;19.142;2023-03-22T00:26:09;8.10;99.90
9329;DHT22;4703;48.748;19.142;2023-03-22T00:28:37;6.10;99.90
9329;DHT22;4703;48.748;19.142;2023-03-22T00:31:05;6.10;99.90
9329;DHT22;4703;48.748;19.142;2023-03-22T00:33:33;6.10;99.90
9329;DHT22;4703;48.748;19.142;2023-03-22T00:36:04;6.10;99.90
9329;DHT22;4703;48.748;19.142;2023-03-22T00:38:35;6.10;99.90
9329;DHT22;4703;48.748;19.142;2023-03-22T00:41:11;8.00;99.90
9329;DHT22;4703;48.748;19.142;2023-03-22T00:43:42;6.10;99.90
9329;DHT22;4703;48.748;19.142;2023-03-22T00:46:10;6.20;99.90
9329;DHT22;4703;48.748;19.142;2023-03-22T00:48:38;6.20;99.90
9329;DHT22;4703;48.748;19.142;2023-03-22T00:51:06;6.20;99.90
9329;DHT22;4703;48.748;19.142;2023-03-22T00:53:34;6.10;99.90
9329;DHT22;4703;48.748;19.142;2023-03-22T00:56:04;6.20;99.90
9329;DHT22;4703;48.748;19.142;2023-03-22T00:58:31;6.30;99.90
9329;DHT22;4703;48.748;19.142;2023-03-22T01:00:59;8.40;99.90
9329;DHT22;4703;48.748;19.142;2023-03-22T01:03:26;6.30;99.90
9329;DHT22;4703;48.748;19.142;2023-03-22T01:05:53;6.30;99.90
9329;DHT22;4703;48.748;19.142;2023-03-22T01:08:23;6.30;99.90
9329;DHT22;4703;48.748;19.142;2023-03-22T01:10:50;6.30;99.90
9329;DHT22;4703;48.748;19.142;2023-03-22T01:13:18;8.60;99.90
9329;DHT22;4703;48.748;19.142;2023-03-22T01:15:44;6.30;99.90
9329;DHT22;4703;48.748;19.142;2023-03-22T01:18:13;8.20;99.90
9329;DHT22;4703;48.748;19.142;2023-03-22T01:20:40;6.40;99.90
9329;DHT22;4703;48.748;19.142;2023-03-22T01:23:07;6.80;99.90
9329;DHT22;4703;48.748;19.142;2023-03-22T01:25:34;7.60;99.90
9329;DHT22;4703;48.748;19.142;2023-03-22T01:28:01;6.40;99.90
9329;DHT22;4703;48.748;19.142;2023-03-22T01:30:29;6.40;99.90
9329;DHT22;4703;48.748;19.142;2023-03-22T01:32:56;6.40;99.90
9329;DHT22;4703;48.748;19.142;2023-03-22T01:35:23;6.40;99.90
9329;DHT22;4703;48.748;19.142;2023-03-22T01:37:50;6.50;99.90
9329;DHT22;4703;48.748;19.142;2023-03-22T01:40:17;6.50;99.90
9329;DHT22;4703;48.748;19.142;2023-03-22T01:42:44;6.70;99.90
9329;DHT22;4703;48.748;19.142;2023-03-22T01:47:54;6.50;99.90
9329;DHT22;4703;48.748;19.142;2023-03-22T01:50:24;6.50;99.90
9329;DHT22;4703;48.748;19.142;2023-03-22T01:52:52;6.50;99.90
9329;DHT22;4703;48.748;19.142;2023-03-22T01:55:23;6.50;99.90
9329;DHT22;4703;48.748;19.142;2023-03-22T01:57:53;6.40;99.90
9329;DHT22;4703;48.748;19.142;2023-03-22T02:00:21;6.40;99.90
9329;DHT22;4703;48.748;19.142;2023-03-22T02:02:49;6.30;99.90
9329;DHT22;4703;48.748;19.142;2023-03-22T02:05:18;7.00;99.90
9329;DHT22;4703;48.748;19.142;2023-03-22T02:07:48;6.30;99.90
9329;DHT22;4703;48.748;19.142;2023-03-22T02:10:19;6.30;99.90
9329;DHT22;4703;48.748;19.142;2023-03-22T02:13:08;6.30;99.90
9329;DHT22;4703;48.748;19.142;2023-03-22T02:22:28;6.10;99.90
9329;DHT22;4703;48.748;19.142;2023-03-22T02:25:41;6.10;99.90
9329;DHT22;4703;48.748;19.142;2023-03-22T02:28:28;6.00;99.90
9329;DHT22;4703;48.748;19.142;2023-03-22T02:31:20;6.00;99.90
9329;DHT22;4703;48.748;19.142;2023-03-22T02:34:06;5.90;99.90
9329;DHT22;4703;48.748;19.142;2023-03-22T02:37:21;5.80;99.90
9329;DHT22;4703;48.748;19.142;2023-03-22T02:40:06;5.80;99.90
9329;DHT22;4703;48.748;19.142;2023-03-22T02:50:54;5.60;99.90
9329;DHT22;4703;48.748;19.142;2023-03-22T02:54:03;5.50;99.90
9329;DHT22;4703;48.748;19.142;2023-03-22T02:56:48;5.30;99.90
9329;DHT22;4703;48.748;19.142;2023-03-22T02:59:23;5.30;99.90
9329;DHT22;4703;48.748;19.142;2023-03-22T03:01:54;5.20;99.90
9329;DHT22;4703;48.748;19.142;2023-03-22T03:04:29;5.20;99.90
9329;DHT22;4703;48.748;19.142;2023-03-22T03:07:03;5.10;99.90
9329;DHT22;4703;48.748;19.142;2023-03-22T03:09:32;5.10;99.90
9329;DHT22;4703;48.748;19.142;2023-03-22T03:12:00;5.00;99.90
9329;DHT22;4703;48.748;19.142;2023-03-22T03:14:30;5.00;99.90
9329;DHT22;4703;48.748;19.142;2023-03-22T03:20:07;4.90;99.90
9329;DHT22;4703;48.748;19.142;2023-03-22T03:23:11;5.00;99.90
9329;DHT22;4703;48.748;19.142;2023-03-22T03:26:22;5.00;99.90
9329;DHT22;4703;48.748;19.142;2023-03-22T03:38:11;4.70;99.90
9329;DHT22;4703;48.748;19.142;2023-03-22T03:40:46;4.60;99.90
9329;DHT22;4703;48.748;19.142;2023-03-22T03:43:15;4.60;99.90
9329;DHT22;4703;48.748;19.142;2023-03-22T03:45:43;4.60;99.90
9329;DHT22;4703;48.748;19.142;2023-03-22T03:48:17;4.50;99.90
9329;DHT22;4703;48.748;19.142;2023-03-22T03:50:47;4.60;99.90
9329;DHT22;4703;48.748;19.142;2023-03-22T03:53:16;4.60;99.90
9329;DHT22;4703;48.748;19.142;2023-03-22T03:55:43;6.40;99.90
9329;DHT22;4703;48.748;19.142;2023-03-22T03:58:10;4.60;99.90
9329;DHT22;4703;48.748;19.142;2023-03-22T04:00:37;4.60;99.90
9329;DHT22;4703;48.748;19.142;2023-03-22T04:03:05;4.70;99.90
9329;DHT22;4703;48.748;19.142;2023-03-22T04:05:32;4.70;99.90
9329;DHT22;4703;48.748;19.142;2023-03-22T04:07:59;4.70;99.90
9329;DHT22;4703;48.748;19.142;2023-03-22T04:10:26;7.20;99.90
9329;DHT22;4703;48.748;19.142;2023-03-22T04:12:53;4.60;99.90
9329;DHT22;4703;48.748;19.142;2023-03-22T04:15:20;4.60;99.90
9329;DHT22;4703;48.748;19.142;2023-03-22T04:17:47;4.50;99.90
9329;DHT22;4703;48.748;19.142;2023-03-22T04:20:14;4.50;99.90
9329;DHT22;4703;48.748;19.142;2023-03-22T04:22:41;4.40;99.90
9329;DHT22;4703;48.748;19.142;2023-03-22T04:25:11;4.50;99.90
9329;DHT22;4703;48.748;19.142;2023-03-22T04:27:40;4.40;99.90
9329;DHT22;4703;48.748;19.142;2023-03-22T04:30:13;4.40;99.90
9329;DHT22;4703;48.748;19.142;2023-03-22T04:32:48;4.40;99.90
9329;DHT22;4703;48.748;19.142;2023-03-22T04:35:16;4.30;99.90
9329;DHT22;4703;48.748;19.142;2023-03-22T04:37:43;4.30;99.90
9329;DHT22;4703;48.748;19.142;2023-03-22T04:40:11;4.30;99.90
9329;DHT22;4703;48.748;19.142;2023-03-22T04:42:42;4.20;99.90
9329;DHT22;4703;48.748;19.142;2023-03-22T04:45:11;4.20;99.90
9329;DHT22;4703;48.748;19.142;2023-03-22T04:47:39;4.30;99.90
9329;DHT22;4703;48.748;19.142;2023-03-22T04:50:07;4.20;99.90
9329;DHT22;4703;48.748;19.142;2023-03-22T04:52:34;4.20;99.90
9329;DHT22;4703;48.748;19.142;2023-03-22T04:55:01;4.20;99.90
9329;DHT22;4703;48.748;19.142;2023-03-22T04:57:28;4.20;99.90
9329;DHT22;4703;48.748;19.142;2023-03-22T04:59:55;6.10;99.90
9329;DHT22;4703;48.748;19.142;2023-03-22T05:02:22;5.90;99.90
9329;DHT22;4703;48.748;19.142;2023-03-22T05:04:49;4.10;99.90
9329;DHT22;4703;48.748;19.142;2023-03-22T05:07:16;4.20;99.90
9329;DHT22;4703;48.748;19.142;2023-03-22T05:09:43;4.20;99.90
9329;DHT22;4703;48.748;19.142;2023-03-22T05:12:10;4.20;99.90
9329;DHT22;4703;48.748;19.142;2023-03-22T05:14:37;4.20;99.90
9329;DHT22;4703;48.748;19.142;2023-03-22T05:17:06;4.20;99.90
9329;DHT22;4703;48.748;19.142;2023-03-22T05:19:33;4.10;99.90
9329;DHT22;4703;48.748;19.142;2023-03-22T05:22:00;4.10;99.90
9329;DHT22;4703;48.748;19.142;2023-03-22T05:24:29;4.20;99.90
9329;DHT22;4703;48.748;19.142;2023-03-22T05:26:56;4.20;99.90
9329;DHT22;4703;48.748;19.142;2023-03-22T05:29:27;4.10;99.90
9329;DHT22;4703;48.748;19.142;2023-03-22T05:31:54;4.20;99.90
9329;DHT22;4703;48.748;19.142;2023-03-22T05:34:21;4.20;99.90
9329;DHT22;4703;48.748;19.142;2023-03-22T05:36:48;4.30;99.90
9329;DHT22;4703;48.748;19.142;2023-03-22T05:39:17;4.30;99.90
9329;DHT22;4703;48.748;19.142;2023-03-22T05:41:44;6.50;99.90
9329;DHT22;4703;48.748;19.142;2023-03-22T05:44:11;5.20;99.90
9329;DHT22;4703;48.748;19.142;2023-03-22T05:46:38;4.30;99.90
9329;DHT22;4703;48.748;19.142;2023-03-22T05:49:05;4.40;99.90
9329;DHT22;4703;48.748;19.142;2023-03-22T05:51:32;4.50;99.90
9329;DHT22;4703;48.748;19.142;2023-03-22T05:54:02;4.50;99.90
9329;DHT22;4703;48.748;19.142;2023-03-22T05:56:29;4.50;99.90
9329;DHT22;4703;48.748;19.142;2023-03-22T05:58:56;4.60;99.90
9329;DHT22;4703;48.748;19.142;2023-03-22T06:01:23;4.70;99.90
9329;DHT22;4703;48.748;19.142;2023-03-22T06:03:51;4.70;99.90
9329;DHT22;4703;48.748;19.142;2023-03-22T06:06:18;7.00;99.90
9329;DHT22;4703;48.748;19.142;2023-03-22T06:08:45;6.80;99.90
9329;DHT22;4703;48.748;19.142;2023-03-22T06:11:12;4.70;99.90
9329;DHT22;4703;48.748;19.142;2023-03-22T06:13:38;4.80;99.90
9329;DHT22;4703;48.748;19.142;2023-03-22T06:16:06;6.00;99.90
9329;DHT22;4703;48.748;19.142;2023-03-22T06:18:33;4.90;99.90
9329;DHT22;4703;48.748;19.142;2023-03-22T06:21:00;4.90;99.90
9329;DHT22;4703;48.748;19.142;2023-03-22T06:23:28;5.10;99.90
9329;DHT22;4703;48.748;19.142;2023-03-22T06:25:55;5.10;99.90
9329;DHT22;4703;48.748;19.142;2023-03-22T06:28:22;5.10;99.90
9329;DHT22;4703;48.748;19.142;2023-03-22T06:30:49;5.20;99.90
9329;DHT22;4703;48.748;19.142;2023-03-22T06:33:16;5.30;99.90
9329;DHT22;4703;48.748;19.142;2023-03-22T06:35:43;7.40;99.90
9329;DHT22;4703;48.748;19.142;2023-03-22T06:38:10;5.40;99.90
9329;DHT22;4703;48.748;19.142;2023-03-22T06:40:37;5.60;99.90
9329;DHT22;4703;48.748;19.142;2023-03-22T06:43:05;5.50;99.90
9329;DHT22;4703;48.748;19.142;2023-03-22T06:45:33;5.50;99.90
9329;DHT22;4703;48.748;19.142;2023-03-22T06:48:01;5.60;99.90
9329;DHT22;4703;48.748;19.142;2023-03-22T06:50:28;5.60;99.90
9329;DHT22;4703;48.748;19.142;2023-03-22T06:52:56;5.70;99.90
9329;DHT22;4703;48.748;19.142;2023-03-22T06:55:23;5.80;99.90
9329;DHT22;4703;48.748;19.142;2023-03-22T06:57:50;5.90;99.90
9329;DHT22;4703;48.748;19.142;2023-03-22T07:00:17;5.90;99.90
9329;DHT22;4703;48.748;19.142;2023-03-22T07:02:44;6.00;99.90
9329;DHT22;4703;48.748;19.142;2023-03-22T07:05:11;6.00;99.90
9329;DHT22;4703;48.748;19.142;2023-03-22T07:07:38;6.10;99.90
9329;DHT22;4703;48.748;19.142;2023-03-22T07:10:05;8.80;99.90
9329;DHT22;4703;48.748;19.142;2023-03-22T07:12:33;6.30;99.90
9329;DHT22;4703;48.748;19.142;2023-03-22T07:15:01;6.60;99.90
9329;DHT22;4703;48.748;19.142;2023-03-22T07:17:28;6.50;99.90
9329;DHT22;4703;48.748;19.142;2023-03-22T07:19:56;6.70;99.90
9329;DHT22;4703;48.748;19.142;2023-03-22T07:22:23;6.80;99.90
9329;DHT22;4703;48.748;19.142;2023-03-22T07:24:51;7.00;99.90
9329;DHT22;4703;48.748;19.142;2023-03-22T07:27:24;7.10;99.90
9329;DHT22;4703;48.748;19.142;2023-03-22T07:29:51;7.20;99.90
9329;DHT22;4703;48.748;19.142;2023-03-22T07:32:18;7.20;99.90
9329;DHT22;4703;48.748;19.142;2023-03-22T07:34:46;7.30;99.90
9329;DHT22;4703;48.748;19.142;2023-03-22T07:37:13;7.40;99.90
9329;DHT22;4703;48.748;19.142;2023-03-22T07:39:40;7.50;99.90
9329;DHT22;4703;48.748;19.142;2023-03-22T07:42:07;7.60;99.90
9329;DHT22;4703;48.748;19.142;2023-03-22T07:44:35;7.70;99.90
9329;DHT22;4703;48.748;19.142;2023-03-22T07:47:02;7.70;99.90
9329;DHT22;4703;48.748;19.142;2023-03-22T07:49:30;7.80;99.90
9329;DHT22;4703;48.748;19.142;2023-03-22T07:51:57;7.90;99.90
9329;DHT22;4703;48.748;19.142;2023-03-22T07:54:24;9.60;99.90
9329;DHT22;4703;48.748;19.142;2023-03-22T07:56:59;9.40;99.90
9329;DHT22;4703;48.748;19.142;2023-03-22T07:59:27;8.10;99.90
9329;DHT22;4703;48.748;19.142;2023-03-22T08:01:54;8.10;99.90
9329;DHT22;4703;48.748;19.142;2023-03-22T08:04:21;8.20;99.90
9329;DHT22;4703;48.748;19.142;2023-03-22T08:06:48;8.30;99.90
9329;DHT22;4703;48.748;19.142;2023-03-22T08:09:17;10.40;99.90
9329;DHT22;4703;48.748;19.142;2023-03-22T08:11:44;10.20;99.90
9329;DHT22;4703;48.748;19.142;2023-03-22T08:14:11;11.20;99.90
9329;DHT22;4703;48.748;19.142;2023-03-22T08:16:38;8.60;99.90
9329;DHT22;4703;48.748;19.142;2023-03-22T08:19:07;8.60;99.90
9329;DHT22;4703;48.748;19.142;2023-03-22T08:21:34;9.00;99.90
9329;DHT22;4703;48.748;19.142;2023-03-22T08:24:00;10.20;99.90
9329;DHT22;4703;48.748;19.142;2023-03-22T08:26:28;11.50;99.90
9329;DHT22;4703;48.748;19.142;2023-03-22T08:28:55;11.90;99.90
9329;DHT22;4703;48.748;19.142;2023-03-22T08:31:22;9.40;99.90
9329;DHT22;4703;48.748;19.142;2023-03-22T08:33:49;9.50;99.90
9329;DHT22;4703;48.748;19.142;2023-03-22T08:36:18;10.80;99.90
9329;DHT22;4703;48.748;19.142;2023-03-22T08:38:48;9.70;99.90
9329;DHT22;4703;48.748;19.142;2023-03-22T08:41:15;9.80;99.90
9329;DHT22;4703;48.748;19.142;2023-03-22T08:43:42;11.70;99.90
9329;DHT22;4703;48.748;19.142;2023-03-22T08:46:09;11.70;99.90
9329;DHT22;4703;48.748;19.142;2023-03-22T08:48:36;12.50;99.90
9329;DHT22;4703;48.748;19.142;2023-03-22T08:51:04;12.20;99.90
9329;DHT22;4703;48.748;19.142;2023-03-22T08:53:32;10.00;99.20
9329;DHT22;4703;48.748;19.142;2023-03-22T08:55:59;11.20;99.70
9329;DHT22;4703;48.748;19.142;2023-03-22T08:58:27;10.10;99.00
9329;DHT22;4703;48.748;19.142;2023-03-22T09:00:54;10.10;98.90
9329;DHT22;4703;48.748;19.142;2023-03-22T09:03:21;10.10;99.10
9329;DHT22;4703;48.748;19.142;2023-03-22T09:05:50;10.10;99.00
9329;DHT22;4703;48.748;19.142;2023-03-22T09:08:18;10.10;99.30
9329;DHT22;4703;48.748;19.142;2023-03-22T09:10:46;10.20;99.30
9329;DHT22;4703;48.748;19.142;2023-03-22T09:13:17;12.70;99.90
9329;DHT22;4703;48.748;19.142;2023-03-22T09:15:45;11.00;99.40
9329;DHT22;4703;48.748;19.142;2023-03-22T09:18:13;10.40;99.10
9329;DHT22;4703;48.748;19.142;2023-03-22T09:20:41;10.40;99.10
9329;DHT22;4703;48.748;19.142;2023-03-22T09:23:13;12.20;99.80
9329;DHT22;4703;48.748;19.142;2023-03-22T09:25:43;11.90;99.50
9329;DHT22;4703;48.748;19.142;2023-03-22T09:28:11;11.70;99.50
9329;DHT22;4703;48.748;19.142;2023-03-22T09:30:38;12.00;99.70
9329;DHT22;4703;48.748;19.142;2023-03-22T09:33:05;12.50;99.60
9329;DHT22;4703;48.748;19.142;2023-03-22T09:35:33;11.60;98.50
9329;DHT22;4703;48.748;19.142;2023-03-22T09:38:00;10.90;97.80
9329;DHT22;4703;48.748;19.142;2023-03-22T09:40:31;12.00;98.00
9329;DHT22;4703;48.748;19.142;2023-03-22T09:43:08;11.30;97.50
9329;DHT22;4703;48.748;19.142;2023-03-22T09:45:40;11.30;97.80
9329;DHT22;4703;48.748;19.142;2023-03-22T09:48:17;11.80;98.20
9329;DHT22;4703;48.748;19.142;2023-03-22T09:50:51;11.10;97.90
9329;DHT22;4703;48.748;19.142;2023-03-22T09:53:21;11.80;98.10
9329;DHT22;4703;48.748;19.142;2023-03-22T09:58:46;12.30;97.40
9329;DHT22;4703;48.748;19.142;2023-03-22T10:10:05;11.40;96.80
9329;DHT22;4703;48.748;19.142;2023-03-22T10:15:50;11.50;96.30
9329;DHT22;4703;48.748;19.142;2023-03-22T10:18:26;11.80;96.50
9329;DHT22;4703;48.748;19.142;2023-03-22T10:21:07;11.80;96.50
9329;DHT22;4703;48.748;19.142;2023-03-22T10:26:36;11.90;96.60
9329;DHT22;4703;48.748;19.142;2023-03-22T10:31:53;11.80;96.40
9329;DHT22;4703;48.748;19.142;2023-03-22T10:34:26;12.20;96.50
9329;DHT22;4703;48.748;19.142;2023-03-22T10:36:57;11.80;96.10
9329;DHT22;4703;48.748;19.142;2023-03-22T10:39:35;12.60;96.20
9329;DHT22;4703;48.748;19.142;2023-03-22T10:42:14;11.90;95.70
9329;DHT22;4703;48.748;19.142;2023-03-22T10:44:46;11.90;96.20
9329;DHT22;4703;48.748;19.142;2023-03-22T10:47:18;13.40;96.90
9329;DHT22;4703;48.748;19.142;2023-03-22T10:50:03;13.30;96.70
9329;DHT22;4703;48.748;19.142;2023-03-22T10:52:43;13.00;96.70
9329;DHT22;4703;48.748;19.142;2023-03-22T10:55:15;13.50;97.00
9329;DHT22;4703;48.748;19.142;2023-03-22T11:00:44;12.10;96.20
9329;DHT22;4703;48.748;19.142;2023-03-22T11:03:26;12.10;96.10
9329;DHT22;4703;48.748;19.142;2023-03-22T11:06:07;12.30;96.10
9329;DHT22;4703;48.748;19.142;2023-03-22T11:11:27;12.10;96.10
9329;DHT22;4703;48.748;19.142;2023-03-22T11:17:00;12.10;96.70
9329;DHT22;4703;48.748;19.142;2023-03-22T11:19:33;13.30;97.00
9329;DHT22;4703;48.748;19.142;2023-03-22T11:22:05;13.30;97.10
9329;DHT22;4703;48.748;19.142;2023-03-22T11:24:33;12.10;96.30
9329;DHT22;4703;48.748;19.142;2023-03-22T11:27:05;12.20;96.20
9329;DHT22;4703;48.748;19.142;2023-03-22T11:29:47;13.10;96.60
9329;DHT22;4703;48.748;19.142;2023-03-22T11:35:22;12.20;96.30
9329;DHT22;4703;48.748;19.142;2023-03-22T11:37:54;12.20;96.20
9329;DHT22;4703;48.748;19.142;2023-03-22T11:40:30;12.20;96.10
9329;DHT22;4703;48.748;19.142;2023-03-22T11:45:44;12.50;96.10
9329;DHT22;4703;48.748;19.142;2023-03-22T11:48:24;13.30;96.50
9329;DHT22;4703;48.748;19.142;2023-03-22T11:50:55;12.20;96.00
9329;DHT22;4703;48.748;19.142;2023-03-22T11:53:32;12.20;96.20
9329;DHT22;4703;48.748;19.142;2023-03-22T11:56:01;12.50;96.30
9329;DHT22;4703;48.748;19.142;2023-03-22T11:59:00;12.80;96.40
9329;DHT22;4703;48.748;19.142;2023-03-22T12:01:56;12.30;96.40
9329;DHT22;4703;48.748;19.142;2023-03-22T12:04:28;12.30;96.20
9329;DHT22;4703;48.748;19.142;2023-03-22T12:06:59;12.70;96.40
9329;DHT22;4703;48.748;19.142;2023-03-22T12:09:43;12.60;96.30
9329;DHT22;4703;48.748;19.142;2023-03-22T12:12:27;12.40;96.20
9329;DHT22;4703;48.748;19.142;2023-03-22T12:15:16;12.50;96.30
9329;DHT22;4703;48.748;19.142;2023-03-22T12:17:59;12.60;96.40
9329;DHT22;4703;48.748;19.142;2023-03-22T12:20:35;12.70;96.60
9329;DHT22;4703;48.748;19.142;2023-03-22T12:23:26;12.70;96.10
9329;DHT22;4703;48.748;19.142;2023-03-22T12:29:04;12.90;95.90
9329;DHT22;4703;48.748;19.142;2023-03-22T12:31:37;13.00;95.60
9329;DHT22;4703;48.748;19.142;2023-03-22T12:34:17;13.10;95.90
9329;DHT22;4703;48.748;19.142;2023-03-22T12:36:55;13.40;95.60
9329;DHT22;4703;48.748;19.142;2023-03-22T12:39:49;13.10;95.10
9329;DHT22;4703;48.748;19.142;2023-03-22T12:42:34;13.20;95.20
9329;DHT22;4703;48.748;19.142;2023-03-22T12:45:26;13.20;95.30
9329;DHT22;4703;48.748;19.142;2023-03-22T12:50:51;13.40;95.20
9329;DHT22;4703;48.748;19.142;2023-03-22T12:53:22;13.50;95.20
9329;DHT22;4703;48.748;19.142;2023-03-22T12:55:53;14.60;95.50
9329;DHT22;4703;48.748;19.142;2023-03-22T12:58:23;14.40;95.30
9329;DHT22;4703;48.748;19.142;2023-03-22T13:01:24;14.00;95.30
9329;DHT22;4703;48.748;19.142;2023-03-22T13:03:59;14.10;95.10
9329;DHT22;4703;48.748;19.142;2023-03-22T13:14:54;15.70;94.50
9329;DHT22;4703;48.748;19.142;2023-03-22T13:35:55;17.20;93.10
9329;DHT22;4703;48.748;19.142;2023-03-22T13:38:41;15.30;91.70
9329;DHT22;4703;48.748;19.142;2023-03-22T13:41:27;15.30;91.80
9329;DHT22;4703;48.748;19.142;2023-03-22T13:44:17;15.40;92.10
9329;DHT22;4703;48.748;19.142;2023-03-22T13:46:51;15.40;91.50
9329;DHT22;4703;48.748;19.142;2023-03-22T13:49:47;15.60;91.30
9329;DHT22;4703;48.748;19.142;2023-03-22T13:52:33;15.90;91.90
9329;DHT22;4703;48.748;19.142;2023-03-22T14:00:56;16.60;90.60
9329;DHT22;4703;48.748;19.142;2023-03-22T14:03:30;16.80;90.10
9329;DHT22;4703;48.748;19.142;2023-03-22T14:06:10;17.10;89.30
9329;DHT22;4703;48.748;19.142;2023-03-22T14:08:42;17.40;87.70
9329;DHT22;4703;48.748;19.142;2023-03-22T14:11:20;17.70;87.80
9329;DHT22;4703;48.748;19.142;2023-03-22T14:13:53;17.90;87.10
9329;DHT22;4703;48.748;19.142;2023-03-22T14:16:35;18.20;84.40
9329;DHT22;4703;48.748;19.142;2023-03-22T14:19:10;18.20;82.70
9329;DHT22;4703;48.748;19.142;2023-03-22T14:21:45;18.30;81.30
9329;DHT22;4703;48.748;19.142;2023-03-22T14:24:16;18.50;81.50
9329;DHT22;4703;48.748;19.142;2023-03-22T14:26:50;18.70;81.60
9329;DHT22;4703;48.748;19.142;2023-03-22T14:29:21;18.80;79.10
9329;DHT22;4703;48.748;19.142;2023-03-22T14:31:59;18.90;77.40
9329;DHT22;4703;48.748;19.142;2023-03-22T14:34:30;19.00;77.90
9329;DHT22;4703;48.748;19.142;2023-03-22T14:37:01;19.00;76.60
9329;DHT22;4703;48.748;19.142;2023-03-22T14:39:36;19.20;77.80
9329;DHT22;4703;48.748;19.142;2023-03-22T14:44:49;19.50;73.40
9329;DHT22;4703;48.748;19.142;2023-03-22T14:47:20;19.60;73.50
9329;DHT22;4703;48.748;19.142;2023-03-22T14:49:55;19.70;72.40
9329;DHT22;4703;48.748;19.142;2023-03-22T14:52:33;20.00;73.60
9329;DHT22;4703;48.748;19.142;2023-03-22T14:55:03;20.20;69.80
9329;DHT22;4703;48.748;19.142;2023-03-22T14:57:36;20.40;69.30
9329;DHT22;4703;48.748;19.142;2023-03-22T15:00:11;20.60;67.60
9329;DHT22;4703;48.748;19.142;2023-03-22T15:03:02;20.80;65.80
9329;DHT22;4703;48.748;19.142;2023-03-22T15:05:35;20.80;65.00
9329;DHT22;4703;48.748;19.142;2023-03-22T15:08:11;20.90;64.60
9329;DHT22;4703;48.748;19.142;2023-03-22T15:10:39;20.90;66.40
9329;DHT22;4703;48.748;19.142;2023-03-22T15:13:07;21.00;66.40
9329;DHT22;4703;48.748;19.142;2023-03-22T15:15:35;21.10;64.50
9329;DHT22;4703;48.748;19.142;2023-03-22T15:18:03;21.20;64.50
9329;DHT22;4703;48.748;19.142;2023-03-22T15:20:34;21.20;62.70
9329;DHT22;4703;48.748;19.142;2023-03-22T15:23:13;21.20;62.90
9329;DHT22;4703;48.748;19.142;2023-03-22T15:25:50;21.10;63.00
9329;DHT22;4703;48.748;19.142;2023-03-22T15:28:25;21.00;62.10
9329;DHT22;4703;48.748;19.142;2023-03-22T15:30:53;20.90;62.80
9329;DHT22;4703;48.748;19.142;2023-03-22T15:33:38;21.00;62.60
9329;DHT22;4703;48.748;19.142;2023-03-22T15:36:05;21.10;61.70
9329;DHT22;4703;48.748;19.142;2023-03-22T15:38:34;21.10;62.80
9329;DHT22;4703;48.748;19.142;2023-03-22T15:41:27;21.20;61.80
9329;DHT22;4703;48.748;19.142;2023-03-22T15:44:18;21.20;62.40
9329;DHT22;4703;48.748;19.142;2023-03-22T15:46:59;21.20;61.50
9329;DHT22;4703;48.748;19.142;2023-03-22T15:49:40;21.20;60.80
9329;DHT22;4703;48.748;19.142;2023-03-22T15:52:16;21.20;61.80
9329;DHT22;4703;48.748;19.142;2023-03-22T15:54:55;21.20;60.40
9329;DHT22;4703;48.748;19.142;2023-03-22T15:57:49;21.30;61.70
9329;DHT22;4703;48.748;19.142;2023-03-22T16:00:38;21.50;61.50
9329;DHT22;4703;48.748;19.142;2023-03-22T16:05:34;21.40;60.00
9329;DHT22;4703;48.748;19.142;2023-03-22T16:08:01;21.30;59.60
9329;DHT22;4703;48.748;19.142;2023-03-22T16:10:31;20.90;59.80
9329;DHT22;4703;48.748;19.142;2023-03-22T16:12:58;20.40;60.20
9329;DHT22;4703;48.748;19.142;2023-03-22T16:15:29;19.90;61.20
9329;DHT22;4703;48.748;19.142;2023-03-22T16:17:57;19.50;63.30
9329;DHT22;4703;48.748;19.142;2023-03-22T16:20:24;19.00;63.90
9329;DHT22;4703;48.748;19.142;2023-03-22T16:22:59;18.80;64.90
9329;DHT22;4703;48.748;19.142;2023-03-22T16:25:26;18.20;65.60
9329;DHT22;4703;48.748;19.142;2023-03-22T16:27:52;17.90;67.30
9329;DHT22;4703;48.748;19.142;2023-03-22T16:30:18;17.70;68.50
9329;DHT22;4703;48.748;19.142;2023-03-22T16:32:46;17.40;69.00
9329;DHT22;4703;48.748;19.142;2023-03-22T16:35:18;17.20;70.00
9329;DHT22;4703;48.748;19.142;2023-03-22T16:37:46;16.90;71.30
9329;DHT22;4703;48.748;19.142;2023-03-22T16:40:19;16.70;71.70
9329;DHT22;4703;48.748;19.142;2023-03-22T16:42:47;16.50;72.80
9329;DHT22;4703;48.748;19.142;2023-03-22T16:45:25;16.40;73.70
9329;DHT22;4703;48.748;19.142;2023-03-22T16:47:54;16.10;74.80
9329;DHT22;4703;48.748;19.142;2023-03-22T16:50:21;16.30;76.70
9329;DHT22;4703;48.748;19.142;2023-03-22T16:52:48;16.00;77.50
9329;DHT22;4703;48.748;19.142;2023-03-22T16:55:26;16.70;79.30
9329;DHT22;4703;48.748;19.142;2023-03-22T16:57:58;15.30;79.30
9329;DHT22;4703;48.748;19.142;2023-03-22T17:00:24;15.20;80.30
9329;DHT22;4703;48.748;19.142;2023-03-22T17:03:02;14.90;81.20
9329;DHT22;4703;48.748;19.142;2023-03-22T17:05:32;14.70;82.20
9329;DHT22;4703;48.748;19.142;2023-03-22T17:08:00;14.80;83.40
9329;DHT22;4703;48.748;19.142;2023-03-22T17:10:28;15.10;85.50
9329;DHT22;4703;48.748;19.142;2023-03-22T17:12:55;14.20;85.90
9329;DHT22;4703;48.748;19.142;2023-03-22T17:15:35;14.00;86.90
9329;DHT22;4703;48.748;19.142;2023-03-22T17:18:06;13.80;87.80
9329;DHT22;4703;48.748;19.142;2023-03-22T17:20:37;14.40;89.50
9329;DHT22;4703;48.748;19.142;2023-03-22T17:23:05;13.90;90.10
9329;DHT22;4703;48.748;19.142;2023-03-22T17:25:35;13.40;90.40
9329;DHT22;4703;48.748;19.142;2023-03-22T17:28:05;13.50;91.10
9329;DHT22;4703;48.748;19.142;2023-03-22T17:30:34;14.30;92.00
9329;DHT22;4703;48.748;19.142;2023-03-22T17:33:01;12.90;91.80
9329;DHT22;4703;48.748;19.142;2023-03-22T17:35:28;14.10;92.80
9329;DHT22;4703;48.748;19.142;2023-03-22T17:37:59;13.70;92.80
9329;DHT22;4703;48.748;19.142;2023-03-22T17:40:27;12.70;92.70
9329;DHT22;4703;48.748;19.142;2023-03-22T17:42:54;12.60;93.20
9329;DHT22;4703;48.748;19.142;2023-03-22T17:45:22;13.90;94.30
9329;DHT22;4703;48.748;19.142;2023-03-22T17:47:53;13.00;94.20
9329;DHT22;4703;48.748;19.142;2023-03-22T17:50:19;12.40;94.30
9329;DHT22;4703;48.748;19.142;2023-03-22T17:52:46;12.30;94.70
9329;DHT22;4703;48.748;19.142;2023-03-22T17:55:18;12.30;95.10
9329;DHT22;4703;48.748;19.142;2023-03-22T17:57:46;12.90;95.70
9329;DHT22;4703;48.748;19.142;2023-03-22T18:00:13;12.80;96.10
9329;DHT22;4703;48.748;19.142;2023-03-22T18:02:41;11.80;96.10
9329;DHT22;4703;48.748;19.142;2023-03-22T18:05:08;12.00;96.40
9329;DHT22;4703;48.748;19.142;2023-03-22T18:07:35;11.80;96.30
9329;DHT22;4703;48.748;19.142;2023-03-22T18:10:01;11.90;96.60
9329;DHT22;4703;48.748;19.142;2023-03-22T18:12:33;13.40;97.50